Terminal Aerodrome Forecast
Issued by NWS Sioux Falls, SD

Home | Current Version | Previous Version | Graphics & Text | Print | Product List | Glossary On
Versions: 1 2 3 4 5 6 7 8 9 10 11 12 13 14 15 16 17 18 19 20 21 22
000
FTUS43 KFSD 052343
TAFHON
TAF
KHON 052343Z 0600/0624 VRB04KT P6SM FEW050 BKN200
     FM060200 02012KT P6SM SCT040 BKN100
     FM060400 01014KT 6SM -TSRA OVC040CB
     FM060600 36015G21KT P6SM -SHRA SCT018 OVC100
     FM061100 35012KT 5SM -RA BR BKN015
     FM061500 35014G20KT P6SM SCT015 OVC060
     FM061800 34017G24KT P6SM SCT030=

USA.gov is the U.S. government's official web portal to all federal, state and local government web resources and services.